Terminal Aerodrome Forecast
Issued by NWS

Home | Current Version | Previous Version | Graphics & Text | Print | Product List | Glossary On
Versions: 1 2 3 4 5 6 7 8 9 10 11 12 13 14 15 16 17 18 19 20
000
FTUS43 KBIS 290800 AAA
TAFDIK
TAF AMD
KDIK 290824Z 2908/3006 32014G19KT P6SM OVC025
      TEMPO 2908/2912 BKN015
     FM291200 32011KT P6SM SCT018 OVC022
      TEMPO 2917/2920 SCT025
     FM292000 31006KT P6SM FEW025 SCT220
     FM292200 VRB05KT P6SM SCT200
     FM300100 15006KT P6SM SCT180=

USA.gov is the U.S. government's official web portal to all federal, state and local government web resources and services.